Time;durP1;ratioP1;P1;durP2;ratioP2;P2;SDS_P1;SDS_P2;PMS_P1;PMS_P2;Temp;Humidity;BMP_temperature;BMP_pressure;BME280_temperature;BME280_humidity;BME280_pressure;Samples;Min_cycle;Max_cycle;Signal;HPM_P1;HPM_P2
2022/07/23 00:01:28;;;;;;;7.72;2.20;;;;;;;12.61;100.00;98765.09;5081463;28;20071;-94
2022/07/23 00:03:54;;;;;;;8.55;2.40;;;;;;;12.66;100.00;98764.16;5079559;28;20129;-95
2022/07/23 00:06:20;;;;;;;9.05;2.25;;;;;;;12.76;100.00;98755.25;5074768;28;20423;-94
2022/07/23 00:08:46;;;;;;;9.57;2.28;;;;;;;12.92;100.00;98761.09;5069791;28;20036;-94
2022/07/23 00:11:11;;;;;;;12.60;2.78;;;;;;;12.96;100.00;98757.50;5070787;28;20028;-95
2022/07/23 00:13:37;;;;;;;7.53;2.30;;;;;;;13.02;100.00;98756.53;5069303;28;20468;-94
2022/07/23 00:16:03;;;;;;;7.95;2.55;;;;;;;12.88;100.00;98754.19;5068889;28;20039;-94
2022/07/23 00:18:29;;;;;;;6.75;2.35;;;;;;;12.87;100.00;98757.69;5068838;28;20123;-95
2022/07/23 00:20:56;;;;;;;8.20;2.67;;;;;;;12.98;100.00;98755.72;5069757;28;20025;-95
2022/07/23 00:23:21;;;;;;;7.03;2.38;;;;;;;12.86;100.00;98761.19;5066005;28;20037;-95
2022/07/23 00:25:47;;;;;;;11.95;3.10;;;;;;;12.88;100.00;98755.03;5071249;28;20122;-95
2022/07/23 00:28:15;;;;;;;7.35;2.60;;;;;;;13.74;100.00;98755.09;5068870;28;20826;-95
2022/07/23 00:30:41;;;;;;;9.20;2.65;;;;;;;14.57;100.00;98727.78;5068657;28;20043;-96
2022/07/23 00:33:09;;;;;;;7.13;2.40;;;;;;;13.85;100.00;98718.16;5061972;28;20220;-95
2022/07/23 00:35:40;;;;;;;7.95;2.50;;;;;;;13.88;100.00;98702.34;5068671;28;20033;-95
2022/07/23 00:38:09;;;;;;;7.93;2.50;;;;;;;14.00;100.00;98688.06;5066795;28;20389;-96
2022/07/23 00:40:35;;;;;;;9.10;2.30;;;;;;;13.91;100.00;98686.53;5062830;28;20056;-95
2022/07/23 00:43:01;;;;;;;7.05;2.40;;;;;;;13.88;100.00;98686.63;5065579;28;20067;-96
2022/07/23 00:45:27;;;;;;;9.18;2.53;;;;;;;12.77;100.00;98695.03;5068110;28;20029;-96
2022/07/23 00:47:53;;;;;;;7.72;2.30;;;;;;;12.69;100.00;98722.25;5066909;28;20048;-95
2022/07/23 00:50:19;;;;;;;8.10;2.55;;;;;;;12.52;100.00;98726.00;5066411;28;20475;-96
2022/07/23 00:52:45;;;;;;;7.75;2.40;;;;;;;12.90;100.00;98732.31;5070711;28;20035;-95
2022/07/23 00:55:11;;;;;;;7.78;2.10;;;;;;;12.91;100.00;98728.78;5080008;28;20593;-95
2022/07/23 00:57:38;;;;;;;7.18;2.10;;;;;;;13.79;100.00;98726.16;5069209;28;20055;-96
2022/07/23 01:00:08;;;;;;;8.65;2.50;;;;;;;12.85;100.00;98700.13;5080692;28;20036;-96
2022/07/23 01:02:34;;;;;;;9.88;2.28;;;;;;;12.92;100.00;98700.88;5065269;28;20024;-96
2022/07/23 01:04:59;;;;;;;7.18;2.20;;;;;;;14.49;100.00;98702.59;5071706;28;20056;-95
2022/07/23 01:07:25;;;;;;;7.63;2.30;;;;;;;13.38;100.00;98671.16;5069770;28;20495;-96
2022/07/23 01:09:51;;;;;;;9.50;2.60;;;;;;;13.24;100.00;98675.81;5067522;28;20035;-96
2022/07/23 01:12:17;;;;;;;8.50;2.50;;;;;;;13.26;100.00;98676.63;5066467;28;20041;-96
2022/07/23 01:14:43;;;;;;;7.05;2.17;;;;;;;13.35;100.00;98673.84;5069141;28;20024;-96
2022/07/23 01:17:09;;;;;;;8.50;2.50;;;;;;;13.35;100.00;98671.22;5070366;28;20059;-95
2022/07/23 01:19:34;;;;;;;10.43;2.53;;;;;;;13.32;100.00;98676.50;5069898;28;20380;-96
2022/07/23 01:22:03;;;;;;;6.15;2.10;;;;;;;13.36;100.00;98678.19;5071370;28;20036;-95
2022/07/23 01:24:29;;;;;;;9.95;2.65;;;;;;;13.40;100.00;98673.72;5067983;28;20111;-96
2022/07/23 01:26:56;;;;;;;6.50;2.60;;;;;;;13.31;100.00;98677.38;5071504;28;20146;-96
2022/07/23 01:29:21;;;;;;;9.43;2.80;;;;;;;13.30;100.00;98676.53;5071279;28;20507;-96
2022/07/23 01:31:47;;;;;;;6.30;2.17;;;;;;;13.47;100.00;98678.81;5067800;28;20032;-95
2022/07/23 01:34:14;;;;;;;8.27;3.03;;;;;;;13.23;100.00;98682.78;5068428;28;20028;-96
2022/07/23 01:36:40;;;;;;;8.45;2.60;;;;;;;13.32;100.00;98681.75;5065385;28;20028;-96
2022/07/23 01:39:07;;;;;;;8.82;2.63;;;;;;;14.00;100.00;98675.84;5066361;28;20469;-96
2022/07/23 01:41:33;;;;;;;7.97;2.42;;;;;;;13.65;100.00;98664.44;5064556;28;20024;-95
2022/07/23 01:43:59;;;;;;;9.25;2.67;;;;;;;13.44;100.00;98671.03;5062343;28;20047;-95
2022/07/23 01:46:24;;;;;;;7.10;2.33;;;;;;;13.42;100.00;98667.56;5064948;28;20127;-95
2022/07/23 01:48:50;;;;;;;7.85;2.22;;;;;;;13.61;100.00;98662.78;5067487;28;20097;-95
2022/07/23 01:51:15;;;;;;;7.60;2.50;;;;;;;13.50;100.00;98662.16;5065121;28;20061;-95
2022/07/23 01:53:41;;;;;;;10.13;2.53;;;;;;;13.64;100.00;98652.22;5068006;28;20094;-96
2022/07/23 01:56:07;;;;;;;7.22;2.38;;;;;;;13.59;100.00;98648.84;5066175;28;20058;-95
2022/07/23 01:58:33;;;;;;;8.90;2.40;;;;;;;13.73;100.00;98653.75;5069976;28;20077;-96
2022/07/23 02:00:59;;;;;;;9.45;2.65;;;;;;;13.63;100.00;98650.50;5069708;28;20032;-95
2022/07/23 02:03:25;;;;;;;8.70;2.70;;;;;;;13.51;100.00;98648.16;5063136;28;20621;-96
2022/07/23 02:05:50;;;;;;;9.07;2.63;;;;;;;13.57;100.00;98645.41;5067928;28;20401;-95
2022/07/23 02:08:16;;;;;;;6.22;2.42;;;;;;;13.71;100.00;98657.31;5070460;28;20028;-96
2022/07/23 02:10:42;;;;;;;9.00;2.95;;;;;;;13.51;100.00;98656.00;5070714;28;20031;-95
2022/07/23 02:13:08;;;;;;;8.60;2.70;;;;;;;13.72;100.00;98662.50;5078231;28;20008;-96
2022/07/23 02:15:33;;;;;;;9.52;2.95;;;;;;;13.61;100.00;98656.66;5090975;28;20038;-96
2022/07/23 02:17:59;;;;;;;9.82;2.80;;;;;;;13.71;100.00;98659.94;5086020;28;20043;-96
2022/07/23 02:20:25;;;;;;;8.70;2.70;;;;;;;13.88;100.00;98663.03;5090396;28;20019;-95
2022/07/23 02:22:50;;;;;;;9.25;2.88;;;;;;;13.70;100.00;98659.09;5090271;28;20615;-95
2022/07/23 02:25:16;;;;;;;10.43;2.63;;;;;;;13.54;100.00;98662.94;5087659;28;20034;-95
2022/07/23 02:27:42;;;;;;;7.82;2.58;;;;;;;13.38;100.00;98660.66;5088346;28;20757;-95
2022/07/23 02:30:08;;;;;;;8.23;2.67;;;;;;;13.51;100.00;98668.25;5086141;28;20039;-94
2022/07/23 02:32:34;;;;;;;9.55;2.63;;;;;;;13.57;100.00;98673.34;5087805;28;20036;-96
2022/07/23 02:35:00;;;;;;;8.73;2.90;;;;;;;13.40;100.00;98668.50;5087887;28;20058;-95
2022/07/23 02:37:25;;;;;;;10.23;3.30;;;;;;;13.25;100.00;98675.75;5090317;28;20023;-95
2022/07/23 02:39:51;;;;;;;10.63;3.53;;;;;;;13.23;100.00;98682.78;5079544;28;20028;-94
2022/07/23 02:42:17;;;;;;;9.93;3.70;;;;;;;13.15;100.00;98682.94;5077111;28;20039;-94
2022/07/23 02:44:44;;;;;;;9.57;3.63;;;;;;;13.21;100.00;98687.19;5085616;28;20027;-95
2022/07/23 02:47:09;;;;;;;11.63;3.70;;;;;;;13.17;100.00;98685.53;5086078;28;20061;-95
2022/07/23 02:49:35;;;;;;;9.75;3.42;;;;;;;13.23;100.00;98682.78;5088293;28;20535;-95
2022/07/23 02:52:00;;;;;;;11.52;4.00;;;;;;;13.17;100.00;98688.16;5076330;28;20635;-95
2022/07/23 02:54:26;;;;;;;9.98;3.60;;;;;;;13.18;100.00;98684.66;5073992;28;20425;-95
2022/07/23 02:56:51;;;;;;;9.57;3.75;;;;;;;13.08;100.00;98688.34;5071807;28;20050;-96
2022/07/23 02:59:18;;;;;;;10.60;3.65;;;;;;;13.05;100.00;98677.94;5073101;28;20027;-95
2022/07/23 03:01:44;;;;;;;9.57;4.00;;;;;;;13.05;100.00;98684.00;5076625;28;20031;-96
2022/07/23 03:04:10;;;;;;;10.32;3.78;;;;;;;12.93;100.00;98674.66;5083474;28;20031;-96
2022/07/23 03:06:35;;;;;;;10.85;3.47;;;;;;;12.80;100.00;98681.03;5075282;28;20024;-96
2022/07/23 03:09:02;;;;;;;9.88;4.32;;;;;;;12.92;100.00;98693.03;5075761;28;20043;-96
2022/07/23 03:11:28;;;;;;;10.32;3.88;;;;;;;12.64;100.00;98696.16;5079690;28;20036;-95
2022/07/23 03:13:53;;;;;;;12.73;4.68;;;;;;;12.57;100.00;98708.50;5079877;28;20062;-95
2022/07/23 03:16:19;;;;;;;15.40;5.35;;;;;;;12.62;100.00;98716.25;5079280;28;20020;-96
2022/07/23 03:18:44;;;;;;;28.33;11.82;;;;;;;12.70;100.00;98723.97;5075704;28;20020;-95
2022/07/23 03:21:10;;;;;;;26.92;11.25;;;;;;;12.66;100.00;98727.53;5082625;28;20028;-96
2022/07/23 03:23:35;;;;;;;30.00;12.38;;;;;;;12.64;100.00;98732.78;5082217;28;20031;-96
2022/07/23 03:26:01;;;;;;;37.83;15.57;;;;;;;12.66;100.00;98744.09;5081268;28;20039;-94
2022/07/23 03:28:27;;;;;;;47.05;18.20;;;;;;;12.86;100.00;98751.59;5081527;28;20040;-96
2022/07/23 03:30:53;;;;;;;49.63;20.30;;;;;;;12.93;100.00;98745.34;5092098;28;20115;-96
2022/07/23 03:33:41;;;;;;;44.13;17.65;;;;;;;13.12;100.00;98748.47;5076311;28;20049;-96
2022/07/23 03:36:08;;;;;;;40.17;16.35;;;;;;;13.23;100.00;98744.78;5083025;28;20043;-96
2022/07/23 03:38:33;;;;;;;33.70;16.38;;;;;;;13.21;100.00;98746.53;5086521;28;20032;-96
2022/07/23 03:41:00;;;;;;;34.10;15.43;;;;;;;13.14;100.00;98730.97;5084002;28;20093;-96
2022/07/23 03:43:27;;;;;;;31.65;15.57;;;;;;;13.12;100.00;98740.63;5092947;28;20028;-96
2022/07/23 03:45:59;;;;;;;30.70;15.77;;;;;;;13.00;100.00;98726.88;5088646;28;20020;-96
2022/07/23 03:48:25;;;;;;;33.87;16.47;;;;;;;13.05;100.00;98732.91;5086861;28;20044;-96
2022/07/23 03:51:03;;;;;;;30.63;14.90;;;;;;;13.10;100.00;98739.78;5084995;28;20066;-96
2022/07/23 03:53:29;;;;;;;31.15;14.82;;;;;;;13.05;100.00;98733.75;5094093;28;20044;-96
2022/07/23 03:56:10;;;;;;;30.45;14.18;;;;;;;12.95;100.00;98734.84;5097249;28;20015;-96
2022/07/23 03:58:41;;;;;;;29.40;13.65;;;;;;;13.11;100.00;98736.28;5100192;28;20015;-96
2022/07/23 04:01:17;;;;;;;29.40;14.00;;;;;;;13.06;100.00;98732.03;5093209;28;20013;-96
2022/07/23 04:03:44;;;;;;;26.42;12.27;;;;;;;12.97;100.00;98728.69;5058666;22;20100;-95
2022/07/23 04:06:09;;;;;;;23.85;11.57;;;;;;;12.67;100.00;98730.13;5012353;28;20061;-95
2022/07/23 04:08:34;;;;;;;25.85;10.90;;;;;;;12.57;100.00;98739.03;5016550;28;20033;-95
2022/07/23 04:11:00;;;;;;;23.25;10.70;;;;;;;13.22;100.00;98738.69;5014854;28;20032;-95
2022/07/23 04:13:25;;;;;;;21.45;10.85;;;;;;;12.31;100.00;98731.63;5030480;28;20037;-94
2022/07/23 04:15:51;;;;;;;25.25;10.35;;;;;;;12.39;100.00;98741.06;5014641;28;20095;-95
2022/07/23 04:18:21;;;;;;;24.42;10.88;;;;;;;12.46;100.00;98737.44;5012927;28;20124;-96
2022/07/23 04:20:48;;;;;;;23.67;11.57;;;;;;;13.04;100.00;98739.03;5012116;28;20041;-95
2022/07/23 04:23:14;;;;;;;22.73;11.18;;;;;;;13.01;100.00;98728.63;5015320;28;20033;-95
2022/07/23 04:25:39;;;;;;;21.38;10.27;;;;;;;13.00;100.00;98719.03;5015440;28;20044;-96
2022/07/23 04:28:04;;;;;;;22.80;10.23;;;;;;;13.19;100.00;98707.31;5013567;28;20021;-96
2022/07/23 04:30:33;;;;;;;25.83;12.35;;;;;;;13.26;100.00;98708.94;5012173;28;20100;-95
2022/07/23 04:33:01;;;;;;;28.35;13.93;;;;;;;13.30;100.00;98697.50;5013250;28;20029;-96
2022/07/23 04:35:28;;;;;;;29.48;12.60;;;;;;;13.16;100.00;98689.03;5013206;28;20033;-95
2022/07/23 04:37:53;;;;;;;31.58;15.30;;;;;;;13.30;100.00;98688.75;5011221;28;20030;-94
2022/07/23 04:40:19;;;;;;;34.45;15.73;;;;;;;13.07;100.00;98682.25;5012473;28;20030;-96
2022/07/23 04:42:44;;;;;;;32.15;15.18;;;;;;;12.98;100.00;98670.22;5010509;28;20025;-96
2022/07/23 04:45:10;;;;;;;34.65;14.23;;;;;;;13.06;100.00;98683.13;5014093;28;20033;-96
2022/07/23 04:47:35;;;;;;;29.20;13.52;;;;;;;13.07;100.00;98682.25;5013677;28;20113;-95
2022/07/23 04:50:01;;;;;;;27.50;12.55;;;;;;;12.89;100.00;98678.25;5013675;28;20033;-96
2022/07/23 04:52:28;;;;;;;25.27;12.55;;;;;;;12.56;100.00;98680.59;5014977;28;20033;-96
2022/07/23 04:54:54;;;;;;;22.92;12.07;;;;;;;12.90;100.00;98684.31;5012706;28;20105;-96
2022/07/23 04:57:20;;;;;;;24.10;12.63;;;;;;;13.27;100.00;98668.72;5014615;28;20037;-96
2022/07/23 04:59:45;;;;;;;27.83;13.88;;;;;;;12.91;100.00;98652.88;5014003;28;20033;-96
2022/07/23 05:02:11;;;;;;;24.60;13.20;;;;;;;13.04;100.00;98663.09;5014002;28;20034;-96
2022/07/23 05:04:38;;;;;;;25.23;12.73;;;;;;;12.99;100.00;98655.34;5009556;28;20049;-96
2022/07/23 05:07:04;;;;;;;25.33;13.52;;;;;;;13.21;100.00;98661.00;5005438;28;20045;-94
2022/07/23 05:09:29;;;;;;;25.55;13.13;;;;;;;13.37;100.00;98661.56;5010701;28;20370;-95
2022/07/23 05:11:55;;;;;;;25.95;13.45;;;;;;;13.39;100.00;98645.81;5029355;28;20491;-95
2022/07/23 05:14:20;;;;;;;26.90;13.30;;;;;;;13.54;100.00;98639.38;5012036;28;20013;-94
2022/07/23 05:16:46;;;;;;;29.83;13.77;;;;;;;13.37;100.00;98642.38;5011272;28;20037;-95
2022/07/23 05:19:12;;;;;;;30.92;14.23;;;;;;;13.36;100.00;98652.00;5011512;28;21821;-95
2022/07/23 05:21:37;;;;;;;33.40;16.02;;;;;;;13.72;100.00;98657.28;5010894;28;20174;-94
2022/07/23 05:24:03;;;;;;;30.70;14.75;;;;;;;14.11;100.00;98656.34;5011789;28;20726;-95
2022/07/23 05:26:28;;;;;;;31.48;15.88;;;;;;;14.15;100.00;98637.00;5012938;28;20304;-96
2022/07/23 05:28:54;;;;;;;25.70;13.73;;;;;;;14.05;100.00;98638.16;5013912;28;20040;-94
2022/07/23 05:31:20;;;;;;;28.17;14.30;;;;;;;14.52;100.00;98633.44;5010185;28;20769;-95
2022/07/23 05:33:45;;;;;;;28.58;14.13;;;;;;;14.30;100.00;98615.63;5027175;28;20025;-95
2022/07/23 05:36:10;;;;;;;29.15;14.63;;;;;;;14.20;100.00;98629.91;5011229;28;20771;-94
2022/07/23 05:38:37;;;;;;;29.15;14.40;;;;;;;14.45;100.00;98629.25;5011158;28;20087;-95
2022/07/23 05:41:07;;;;;;;27.23;13.63;;;;;;;14.40;100.00;98625.88;5011050;28;20030;-96
2022/07/23 05:43:37;;;;;;;25.80;12.77;;;;;;;14.05;100.00;98632.91;5012044;28;20049;-95
2022/07/23 05:46:05;;;;;;;28.58;13.30;;;;;;;13.04;100.00;98652.63;5026599;28;20648;-95
2022/07/23 05:48:33;;;;;;;29.70;13.80;;;;;;;12.85;100.00;98676.56;5009079;28;20037;-96
2022/07/23 05:50:58;;;;;;;29.88;14.23;;;;;;;12.89;100.00;98686.09;5010108;28;20036;-95
2022/07/23 05:53:24;;;;;;;24.67;12.85;;;;;;;12.95;100.00;98703.44;5011202;28;20037;-95
2022/07/23 05:55:50;;;;;;;29.20;13.48;;;;;;;12.98;100.00;98716.44;5010890;28;20090;-96
2022/07/23 05:58:16;;;;;;;28.80;14.70;;;;;;;13.05;100.00;98725.91;5009284;28;20048;-96
2022/07/23 06:00:41;;;;;;;29.67;13.80;;;;;;;13.08;100.00;98731.09;5011851;28;20033;-96
2022/07/23 06:03:07;;;;;;;26.52;14.60;;;;;;;13.03;100.00;98727.69;5007435;28;21360;-96
2022/07/23 06:05:36;;;;;;;28.42;14.45;;;;;;;13.10;100.00;98733.69;5011033;28;21170;-96
2022/07/23 06:08:02;;;;;;;28.35;13.90;;;;;;;13.13;100.00;98723.16;5009179;28;20055;-96
2022/07/23 06:10:28;;;;;;;25.48;13.32;;;;;;;13.24;100.00;98731.66;5009578;28;20033;-96
2022/07/23 06:12:53;;;;;;;31.48;13.70;;;;;;;13.29;100.00;98721.06;5011994;28;20041;-96
2022/07/23 06:15:19;;;;;;;24.92;13.23;;;;;;;13.45;100.00;98742.63;5011360;28;20090;-96
2022/07/23 06:17:44;;;;;;;27.48;13.23;;;;;;;13.46;100.00;98739.97;5010478;28;20521;-95
2022/07/23 06:20:10;;;;;;;29.27;14.90;;;;;;;13.50;100.00;98735.53;5011510;28;20059;-96
2022/07/23 06:22:36;;;;;;;29.35;14.48;;;;;;;13.66;100.00;98733.44;5007291;28;20025;-96
2022/07/23 06:25:02;;;;;;;33.17;15.63;;;;;;;13.86;100.00;98739.97;5010132;28;20021;-94
2022/07/23 06:27:28;;;;;;;31.08;14.77;;;;;;;13.96;100.00;98728.41;5007478;28;20091;-92
2022/07/23 06:29:54;;;;;;;28.95;14.30;;;;;;;14.13;100.00;98720.97;5021916;28;20084;-93
2022/07/23 06:32:19;;;;;;;30.63;15.43;;;;;;;14.24;100.00;98723.34;5005691;28;20057;-92
2022/07/23 06:34:45;;;;;;;26.55;14.77;;;;;;;14.50;100.00;98719.19;5006031;28;20025;-94
2022/07/23 06:37:11;;;;;;;30.83;15.20;;;;;;;14.46;100.00;98709.69;5005452;28;20036;-93
2022/07/23 06:39:36;;;;;;;29.23;15.02;;;;;;;14.59;100.00;98705.84;5009308;28;20049;-92
2022/07/23 06:42:02;;;;;;;27.95;14.07;;;;;;;14.80;100.00;98693.94;5008193;28;20029;-93
2022/07/23 06:44:28;;;;;;;26.55;14.15;;;;;;;15.06;100.00;98700.25;5027504;28;20049;-92
2022/07/23 06:46:53;;;;;;;31.10;14.80;;;;;;;14.90;100.00;98677.94;5027469;28;20489;-93
2022/07/23 06:49:19;;;;;;;28.27;14.32;;;;;;;15.08;100.00;98666.91;5008929;28;20037;-93
2022/07/23 06:51:45;;;;;;;27.90;14.00;;;;;;;15.11;100.00;98666.81;5025805;28;20033;-92
2022/07/23 06:54:10;;;;;;;27.40;14.13;;;;;;;15.08;100.00;98666.91;5009119;28;20032;-93
2022/07/23 06:56:36;;;;;;;26.13;14.07;;;;;;;15.11;100.00;98658.06;5006619;28;20183;-94
2022/07/23 06:59:02;;;;;;;32.72;14.75;;;;;;;15.03;100.00;98668.81;5008800;28;20040;-94
2022/07/23 07:01:28;;;;;;;25.50;13.23;;;;;;;15.36;100.00;98660.84;5007768;28;20413;-93
2022/07/23 07:03:53;;;;;;;27.98;14.95;;;;;;;15.43;100.00;98661.50;5008380;28;20045;-94
2022/07/23 07:06:19;;;;;;;29.17;15.18;;;;;;;15.40;100.00;98653.72;5026568;28;20041;-95
2022/07/23 07:08:44;;;;;;;27.38;14.02;;;;;;;15.43;100.00;98651.00;5007897;28;20029;-94
2022/07/23 07:11:10;;;;;;;26.85;14.10;;;;;;;15.38;100.00;98639.75;5009031;28;20060;-95
2022/07/23 07:13:37;;;;;;;31.95;14.27;;;;;;;15.36;100.00;98642.44;5010055;28;20037;-94
2022/07/23 07:16:03;;;;;;;29.63;15.35;;;;;;;15.30;100.00;98640.88;5026706;28;20072;-93
2022/07/23 07:18:29;;;;;;;28.88;14.50;;;;;;;15.25;100.00;98634.88;5014931;28;20025;-94
2022/07/23 07:20:54;;;;;;;29.05;14.77;;;;;;;15.37;100.00;98641.53;5032187;28;20025;-94
2022/07/23 07:23:20;;;;;;;27.73;13.43;;;;;;;15.32;100.00;98638.19;5014714;28;20025;-95
2022/07/23 07:25:46;;;;;;;29.08;14.70;;;;;;;15.50;100.00;98642.91;5030041;28;21246;-94
2022/07/23 07:28:12;;;;;;;32.53;15.00;;;;;;;15.63;100.00;98637.22;5029335;28;20025;-95
2022/07/23 07:30:38;;;;;;;30.75;14.57;;;;;;;15.66;100.00;98640.63;5013335;28;20036;-94
2022/07/23 07:33:03;;;;;;;29.10;13.98;;;;;;;15.94;100.00;98625.78;5012909;28;20041;-95
2022/07/23 07:35:31;;;;;;;26.88;14.23;;;;;;;16.06;100.00;98625.38;5014439;28;20059;-95
2022/07/23 07:37:56;;;;;;;31.92;14.55;;;;;;;15.70;100.00;98612.50;5013350;28;20033;-95
2022/07/23 07:40:22;;;;;;;31.88;15.38;;;;;;;16.17;100.00;98611.84;5013967;28;20041;-96
2022/07/23 07:42:52;;;;;;;28.83;13.93;;;;;;;16.09;100.00;98608.59;5010749;28;20124;-95
2022/07/23 07:45:21;;;;;;;29.85;14.95;;;;;;;16.30;100.00;98602.63;5012346;28;20022;-95
2022/07/23 07:47:47;;;;;;;29.30;14.05;;;;;;;16.17;100.00;98599.56;5014288;28;20053;-96
2022/07/23 07:50:12;;;;;;;27.67;14.18;;;;;;;16.08;100.00;98606.91;5013012;28;20025;-96
2022/07/23 07:52:38;;;;;;;25.98;14.00;;;;;;;16.02;100.00;98600.94;5014186;28;20452;-95
2022/07/23 07:55:05;;;;;;;26.58;13.88;;;;;;;15.93;100.00;98603.84;5013610;28;20095;-93
2022/07/23 07:57:31;;;;;;;27.88;14.52;;;;;;;16.08;100.00;98591.13;5016760;28;20045;-94
2022/07/23 08:00:34;;;;;;;25.02;13.48;;;;;;;16.09;100.00;98587.56;5013958;28;20032;-94
2022/07/23 08:02:59;;;;;;;28.65;15.25;;;;;;;16.07;100.00;98592.03;5019682;28;20120;-94
2022/07/23 08:05:28;;;;;;;27.92;13.65;;;;;;;16.28;100.00;98586.00;5010990;28;20478;-95
2022/07/23 08:07:55;;;;;;;28.92;14.95;;;;;;;16.57;100.00;98591.16;5014165;28;20022;-95
2022/07/23 08:10:21;;;;;;;27.52;13.65;;;;;;;16.82;100.00;98594.59;5009328;28;20034;-94
2022/07/23 08:12:49;;;;;;;24.50;13.23;;;;;;;17.03;100.00;98586.84;5011114;28;20034;-94
2022/07/23 08:15:18;;;;;;;25.45;13.45;;;;;;;16.93;100.00;98574.94;5011268;28;20033;-95
2022/07/23 08:17:45;;;;;;;24.17;12.30;;;;;;;16.89;100.00;98568.94;5010459;28;20061;-95
2022/07/23 08:20:12;;;;;;;25.00;12.20;;;;;;;17.08;100.00;98569.09;5013136;28;20030;-94
2022/07/23 08:22:42;;;;;;;24.13;12.27;;;;;;;17.30;100.00;98569.13;5008613;28;20045;-94
2022/07/23 08:25:15;;;;;;;23.13;12.00;;;;;;;17.11;100.00;98560.22;5011547;28;20117;-93
2022/07/23 08:27:41;;;;;;;;;;;;;;;16.98;100.00;98580.88;5015525;28;20112;-94
2022/07/23 08:30:09;;;;;;;25.00;11.23;;;;;;;17.16;100.00;98580.19;5011098;28;20023;-94
2022/07/23 08:33:20;;;;;;;25.67;10.82;;;;;;;17.01;100.00;98567.63;5010938;28;20052;-94
2022/07/23 08:35:50;;;;;;;19.40;9.50;;;;;;;17.03;100.00;98565.75;4976824;28;20100;-95
2022/07/23 08:38:18;;;;;;;17.42;9.35;;;;;;;16.99;100.00;98561.53;5006485;28;20415;-94
2022/07/23 08:40:48;;;;;;;18.83;9.77;;;;;;;17.06;100.00;98555.09;5009733;28;20069;-94
2022/07/23 08:43:17;;;;;;;21.25;9.32;;;;;;;17.05;100.00;98535.81;5009924;28;20044;-94
2022/07/23 08:45:45;;;;;;;16.95;9.38;;;;;;;17.47;100.00;98526.25;5012119;28;20026;-93
2022/07/23 08:48:21;;;;;;;17.25;9.18;;;;;;;17.80;100.00;98524.91;5010127;28;20036;-94
2022/07/23 08:50:49;;;;;;;20.95;10.23;;;;;;;17.95;100.00;98518.16;5010634;28;20034;-94
2022/07/23 08:53:16;;;;;;;19.30;9.55;;;;;;;17.84;100.00;98514.19;5014359;28;20243;-95
2022/07/23 08:55:51;;;;;;;17.55;9.18;;;;;;;17.74;100.00;98511.06;5010368;28;20048;-95
2022/07/23 08:58:17;;;;;;;18.90;9.48;;;;;;;17.47;100.00;98509.59;5028235;28;20040;-94
2022/07/23 09:00:44;;;;;;;21.73;10.18;;;;;;;17.46;100.00;98516.63;5009045;28;20030;-95
2022/07/23 09:03:25;;;;;;;17.15;9.05;;;;;;;17.86;100.00;98514.09;5008612;28;20046;-96
2022/07/23 09:05:51;;;;;;;16.60;8.75;;;;;;;17.75;100.00;98519.84;5007208;28;20509;-95
2022/07/23 09:08:19;;;;;;;15.07;9.07;;;;;;;17.16;100.00;98523.97;5008104;28;20029;-94
2022/07/23 09:10:57;;;;;;;16.60;9.75;;;;;;;17.41;100.00;98529.13;5006249;28;20038;-94
2022/07/23 09:13:43;;;;;;;17.58;9.05;;;;;;;17.33;100.00;98528.59;5010358;28;20060;-95
2022/07/23 09:16:10;;;;;;;17.70;8.93;;;;;;;17.28;100.00;98522.66;5006398;28;20473;-94
2022/07/23 09:18:47;;;;;;;17.63;9.10;;;;;;;17.43;100.00;98526.44;5008715;28;20367;-95
2022/07/23 09:21:30;;;;;;;17.88;9.25;;;;;;;17.43;100.00;98529.09;5008881;28;20018;-94
2022/07/23 09:24:08;;;;;;;16.27;9.45;;;;;;;17.23;100.00;98530.75;5027475;28;20030;-94
2022/07/23 09:26:38;;;;;;;18.10;9.85;;;;;;;17.63;100.00;98525.63;5007036;28;20040;-95
2022/07/23 09:29:06;;;;;;;20.48;10.75;;;;;;;17.69;100.00;98528.84;5006796;28;20124;-94
2022/07/23 09:31:46;;;;;;;17.55;10.13;;;;;;;17.86;100.00;98522.88;5009988;28;20034;-92
2022/07/23 09:34:30;;;;;;;20.20;10.05;;;;;;;18.38;100.00;98514.47;5008140;28;20025;-93
2022/07/23 09:37:17;;;;;;;21.10;10.77;;;;;;;18.49;100.00;98511.34;5006405;28;20136;-94
2022/07/23 09:39:44;;;;;;;20.90;9.98;;;;;;;18.55;100.00;98508.44;5004885;28;20105;-95
2022/07/23 09:42:15;;;;;;;21.55;9.77;;;;;;;18.59;100.00;98499.47;5008367;28;20026;-93
2022/07/23 09:44:47;;;;;;;19.00;8.95;;;;;;;18.30;100.00;98499.91;5007901;28;20018;-95
2022/07/23 09:47:20;;;;;;;20.15;9.95;;;;;;;18.45;100.00;98501.00;5009166;28;20160;-94
2022/07/23 09:50:08;;;;;;;19.50;9.35;;;;;;;18.78;100.00;98503.88;5008071;28;20057;-95
2022/07/23 09:52:43;;;;;;;17.25;8.93;;;;;;;18.59;100.00;98502.09;5011011;28;20552;-95
2022/07/23 09:55:11;;;;;;;17.42;9.93;;;;;;;18.07;100.00;98505.28;5010423;28;20033;-96
2022/07/23 09:57:40;;;;;;;17.13;9.20;;;;;;;18.16;100.00;98497.88;5009950;28;20161;-93
2022/07/23 10:00:09;;;;;;;19.35;9.50;;;;;;;18.54;100.00;98514.66;5007405;28;20088;-92
2022/07/23 10:02:35;;;;;;;18.38;9.05;;;;;;;18.42;100.00;98508.13;5012586;28;20059;-94
2022/07/23 10:05:02;;;;;;;26.25;9.25;;;;;;;18.93;100.00;98491.78;5015060;28;20091;-93
2022/07/23 10:07:37;;;;;;;20.83;8.85;;;;;;;19.50;100.00;98486.38;5015039;28;20825;-93
2022/07/23 10:10:04;;;;;;;20.75;8.88;;;;;;;19.69;100.00;98473.03;5015867;28;20033;-94
2022/07/23 10:15:08;;;;;;;15.15;8.80;;;;;;;18.72;100.00;98473.31;5032749;28;20070;-95
2022/07/23 10:17:34;;;;;;;18.17;8.25;;;;;;;19.11;100.00;98476.81;5012716;28;20549;-94
2022/07/23 10:20:01;;;;;;;14.88;8.20;;;;;;;19.20;100.00;98488.72;5014625;28;20025;-94
2022/07/23 10:22:36;;;;;;;18.80;9.10;;;;;;;19.28;100.00;98491.84;5031601;28;20045;-93
2022/07/23 10:25:26;;;;;;;18.90;8.98;;;;;;;18.95;100.00;98491.69;5014417;28;20029;-92
2022/07/23 10:27:52;;;;;;;17.17;7.95;;;;;;;19.20;100.00;98488.72;5012292;28;20064;-92
2022/07/23 10:30:35;;;;;;;16.83;8.50;;;;;;;19.26;100.00;98486.66;5014391;28;20048;-93
2022/07/23 10:33:17;;;;;;;13.85;7.45;;;;;;;19.58;100.00;98492.13;5014210;28;20029;-94
2022/07/23 10:35:42;;;;;;;17.27;8.18;;;;;;;19.52;100.00;98481.84;5012716;28;20111;-94
2022/07/23 10:38:23;;;;;;;15.95;7.63;;;;;;;19.49;100.00;98486.44;5011335;28;20034;-94
2022/07/23 10:40:58;;;;;;;17.20;8.07;;;;;;;19.43;100.00;98485.81;5014295;28;20041;-96
2022/07/23 10:43:24;;;;;;;16.98;8.10;;;;;;;19.28;100.00;98483.94;5013619;28;20057;-94
2022/07/23 10:45:50;;;;;;;16.15;7.75;;;;;;;19.09;100.00;98479.53;5013491;28;20462;-92
2022/07/23 10:48:22;;;;;;;15.77;8.10;;;;;;;19.23;100.00;98478.88;5031026;28;20024;-93
2022/07/23 10:51:14;;;;;;;15.23;7.88;;;;;;;19.00;100.00;98477.34;5014385;28;20802;-93
2022/07/23 10:53:52;;;;;;;14.38;7.38;;;;;;;19.28;100.00;98473.34;5012898;28;20035;-93
2022/07/23 10:56:58;;;;;;;14.32;6.75;;;;;;;19.07;100.00;98478.75;5012739;28;20879;-95
2022/07/23 10:59:23;;;;;;;14.70;7.00;;;;;;;19.53;100.00;98475.63;5011906;28;20124;-94
2022/07/23 11:01:49;;;;;;;12.93;6.68;;;;;;;19.21;100.00;98469.31;5027044;28;20111;-94
2022/07/23 11:04:16;;;;;;;12.15;5.90;;;;;;;19.35;100.00;98472.09;5030680;28;20042;-93
2022/07/23 11:06:50;;;;;;;15.65;6.38;;;;;;;19.07;100.00;98467.34;5013463;28;20116;-94
2022/07/23 11:09:37;;;;;;;11.55;5.00;;;;;;;18.78;100.00;98458.97;5029303;28;20038;-93
2022/07/23 11:12:29;;;;;;;15.60;6.40;;;;;;;20.65;100.00;98452.16;5010346;28;20144;-94
2022/07/23 11:15:03;;;;;;;13.35;5.25;;;;;;;18.43;100.00;98459.69;5005319;28;20087;-93
2022/07/23 11:17:30;;;;;;;11.18;4.20;;;;;;;18.37;100.00;98459.97;5013195;28;20042;-93
2022/07/23 11:20:17;;;;;;;11.10;5.10;;;;;;;18.45;100.00;98466.69;5013215;28;20086;-92
2022/07/23 11:22:42;;;;;;;10.93;5.00;;;;;;;18.51;100.00;98463.75;5011204;28;20052;-93